sensor_id;sensor_type;location;lat;lon;timestamp;P1;durP1;ratioP1;P2;durP2;ratioP2
40152;SDS011;26371;56.992;23.912;2024-02-15T00:00:19;24.00;;;13.57;;
40152;SDS011;26371;56.992;23.912;2024-02-15T00:02:49;23.17;;;13.23;;
40152;SDS011;26371;56.992;23.912;2024-02-15T00:05:18;28.88;;;15.73;;
40152;SDS011;26371;56.992;23.912;2024-02-15T00:07:47;27.17;;;14.68;;
40152;SDS011;26371;56.992;23.912;2024-02-15T00:10:17;23.30;;;13.10;;
40152;SDS011;26371;56.992;23.912;2024-02-15T00:12:48;29.80;;;13.85;;
40152;SDS011;26371;56.992;23.912;2024-02-15T00:15:17;26.25;;;14.07;;
40152;SDS011;26371;56.992;23.912;2024-02-15T00:20:16;25.80;;;13.35;;
40152;SDS011;26371;56.992;23.912;2024-02-15T00:22:47;29.38;;;13.77;;
40152;SDS011;26371;56.992;23.912;2024-02-15T00:25:18;29.80;;;14.18;;
40152;SDS011;26371;56.992;23.912;2024-02-15T00:27:47;23.95;;;13.32;;
40152;SDS011;26371;56.992;23.912;2024-02-15T00:30:20;25.63;;;14.55;;
40152;SDS011;26371;56.992;23.912;2024-02-15T00:32:50;25.60;;;12.82;;
40152;SDS011;26371;56.992;23.912;2024-02-15T00:35:19;24.98;;;13.75;;
40152;SDS011;26371;56.992;23.912;2024-02-15T00:37:49;26.15;;;14.70;;
40152;SDS011;26371;56.992;23.912;2024-02-15T00:40:20;28.40;;;14.30;;
40152;SDS011;26371;56.992;23.912;2024-02-15T00:42:49;23.63;;;13.25;;
40152;SDS011;26371;56.992;23.912;2024-02-15T00:45:18;29.83;;;14.77;;
40152;SDS011;26371;56.992;23.912;2024-02-15T00:47:47;27.38;;;14.88;;
40152;SDS011;26371;56.992;23.912;2024-02-15T00:50:16;28.80;;;15.05;;
40152;SDS011;26371;56.992;23.912;2024-02-15T00:52:53;23.95;;;14.15;;
40152;SDS011;26371;56.992;23.912;2024-02-15T00:55:23;27.77;;;15.18;;
40152;SDS011;26371;56.992;23.912;2024-02-15T00:57:52;26.95;;;15.38;;
40152;SDS011;26371;56.992;23.912;2024-02-15T01:00:21;25.35;;;14.30;;
40152;SDS011;26371;56.992;23.912;2024-02-15T01:02:50;28.23;;;12.83;;
40152;SDS011;26371;56.992;23.912;2024-02-15T01:05:21;24.65;;;13.38;;
40152;SDS011;26371;56.992;23.912;2024-02-15T01:10:19;26.83;;;13.98;;
40152;SDS011;26371;56.992;23.912;2024-02-15T01:12:50;23.98;;;12.90;;
40152;SDS011;26371;56.992;23.912;2024-02-15T01:15:19;28.45;;;14.35;;
40152;SDS011;26371;56.992;23.912;2024-02-15T01:17:48;27.33;;;14.52;;
40152;SDS011;26371;56.992;23.912;2024-02-15T01:20:17;26.13;;;15.00;;
40152;SDS011;26371;56.992;23.912;2024-02-15T01:22:47;25.45;;;14.13;;
40152;SDS011;26371;56.992;23.912;2024-02-15T01:25:16;25.03;;;14.73;;
40152;SDS011;26371;56.992;23.912;2024-02-15T01:27:45;26.13;;;14.13;;
40152;SDS011;26371;56.992;23.912;2024-02-15T01:30:16;28.52;;;15.88;;
40152;SDS011;26371;56.992;23.912;2024-02-15T01:32:45;26.83;;;14.60;;
40152;SDS011;26371;56.992;23.912;2024-02-15T01:35:14;28.15;;;14.57;;
40152;SDS011;26371;56.992;23.912;2024-02-15T01:37:43;30.33;;;15.70;;
40152;SDS011;26371;56.992;23.912;2024-02-15T01:40:12;29.17;;;15.00;;
40152;SDS011;26371;56.992;23.912;2024-02-15T01:42:40;25.38;;;14.77;;
40152;SDS011;26371;56.992;23.912;2024-02-15T01:45:09;31.88;;;16.58;;
40152;SDS011;26371;56.992;23.912;2024-02-15T01:47:40;31.35;;;16.90;;
40152;SDS011;26371;56.992;23.912;2024-02-15T01:50:11;35.53;;;17.27;;
40152;SDS011;26371;56.992;23.912;2024-02-15T01:52:41;30.13;;;15.48;;
40152;SDS011;26371;56.992;23.912;2024-02-15T01:55:14;32.60;;;16.15;;
40152;SDS011;26371;56.992;23.912;2024-02-15T01:57:45;33.58;;;15.23;;
40152;SDS011;26371;56.992;23.912;2024-02-15T02:00:14;29.93;;;15.37;;
40152;SDS011;26371;56.992;23.912;2024-02-15T02:02:46;30.77;;;14.75;;
40152;SDS011;26371;56.992;23.912;2024-02-15T02:05:16;30.25;;;16.23;;
40152;SDS011;26371;56.992;23.912;2024-02-15T02:07:45;32.70;;;15.80;;
40152;SDS011;26371;56.992;23.912;2024-02-15T02:10:14;30.10;;;15.07;;
40152;SDS011;26371;56.992;23.912;2024-02-15T02:12:43;31.17;;;17.10;;
40152;SDS011;26371;56.992;23.912;2024-02-15T02:15:12;30.77;;;16.17;;
40152;SDS011;26371;56.992;23.912;2024-02-15T02:17:41;32.42;;;17.35;;
40152;SDS011;26371;56.992;23.912;2024-02-15T02:20:11;28.70;;;15.60;;
40152;SDS011;26371;56.992;23.912;2024-02-15T02:22:40;31.08;;;16.33;;
40152;SDS011;26371;56.992;23.912;2024-02-15T02:25:13;28.70;;;15.68;;
40152;SDS011;26371;56.992;23.912;2024-02-15T02:27:43;30.60;;;16.00;;
40152;SDS011;26371;56.992;23.912;2024-02-15T02:30:12;34.53;;;16.40;;
40152;SDS011;26371;56.992;23.912;2024-02-15T02:32:45;39.70;;;17.90;;
40152;SDS011;26371;56.992;23.912;2024-02-15T02:35:14;35.08;;;16.73;;
40152;SDS011;26371;56.992;23.912;2024-02-15T02:37:43;28.07;;;15.70;;
40152;SDS011;26371;56.992;23.912;2024-02-15T02:40:14;36.90;;;18.08;;
40152;SDS011;26371;56.992;23.912;2024-02-15T02:42:48;30.73;;;16.88;;
40152;SDS011;26371;56.992;23.912;2024-02-15T02:45:18;32.97;;;16.45;;
40152;SDS011;26371;56.992;23.912;2024-02-15T02:47:50;30.83;;;16.60;;
40152;SDS011;26371;56.992;23.912;2024-02-15T02:50:21;28.13;;;16.23;;
40152;SDS011;26371;56.992;23.912;2024-02-15T02:52:50;31.90;;;16.85;;
40152;SDS011;26371;56.992;23.912;2024-02-15T02:55:22;31.02;;;17.42;;
40152;SDS011;26371;56.992;23.912;2024-02-15T02:57:54;34.15;;;17.67;;
40152;SDS011;26371;56.992;23.912;2024-02-15T03:00:23;29.80;;;17.23;;
40152;SDS011;26371;56.992;23.912;2024-02-15T03:02:52;36.83;;;18.23;;
40152;SDS011;26371;56.992;23.912;2024-02-15T03:05:23;34.25;;;16.27;;
40152;SDS011;26371;56.992;23.912;2024-02-15T03:07:52;41.23;;;19.00;;
40152;SDS011;26371;56.992;23.912;2024-02-15T03:10:22;40.35;;;18.55;;
40152;SDS011;26371;56.992;23.912;2024-02-15T03:12:51;37.95;;;19.13;;
40152;SDS011;26371;56.992;23.912;2024-02-15T03:15:20;46.22;;;20.35;;
40152;SDS011;26371;56.992;23.912;2024-02-15T03:17:50;33.05;;;18.73;;
40152;SDS011;26371;56.992;23.912;2024-02-15T03:20:19;34.47;;;18.80;;
40152;SDS011;26371;56.992;23.912;2024-02-15T03:22:53;34.42;;;18.80;;
40152;SDS011;26371;56.992;23.912;2024-02-15T03:25:24;38.25;;;19.58;;
40152;SDS011;26371;56.992;23.912;2024-02-15T03:27:53;38.30;;;18.58;;
40152;SDS011;26371;56.992;23.912;2024-02-15T03:30:23;39.55;;;20.17;;
40152;SDS011;26371;56.992;23.912;2024-02-15T03:32:52;37.05;;;20.40;;
40152;SDS011;26371;56.992;23.912;2024-02-15T03:35:22;36.50;;;17.67;;
40152;SDS011;26371;56.992;23.912;2024-02-15T03:37:51;37.95;;;18.00;;
40152;SDS011;26371;56.992;23.912;2024-02-15T03:40:20;38.38;;;19.13;;
40152;SDS011;26371;56.992;23.912;2024-02-15T03:42:51;32.38;;;17.80;;
40152;SDS011;26371;56.992;23.912;2024-02-15T03:45:20;34.47;;;17.52;;
40152;SDS011;26371;56.992;23.912;2024-02-15T03:47:52;36.47;;;18.35;;
40152;SDS011;26371;56.992;23.912;2024-02-15T03:50:22;36.75;;;18.23;;
40152;SDS011;26371;56.992;23.912;2024-02-15T03:52:51;33.92;;;18.52;;
40152;SDS011;26371;56.992;23.912;2024-02-15T03:55:20;29.88;;;17.52;;
40152;SDS011;26371;56.992;23.912;2024-02-15T03:57:53;38.00;;;18.55;;
40152;SDS011;26371;56.992;23.912;2024-02-15T04:00:24;32.78;;;17.63;;
40152;SDS011;26371;56.992;23.912;2024-02-15T04:02:53;35.47;;;19.17;;
40152;SDS011;26371;56.992;23.912;2024-02-15T04:05:23;32.17;;;18.05;;
40152;SDS011;26371;56.992;23.912;2024-02-15T04:07:52;34.17;;;18.42;;
40152;SDS011;26371;56.992;23.912;2024-02-15T04:10:21;32.55;;;18.48;;
40152;SDS011;26371;56.992;23.912;2024-02-15T04:12:51;31.70;;;17.55;;
40152;SDS011;26371;56.992;23.912;2024-02-15T04:15:21;36.50;;;17.83;;
40152;SDS011;26371;56.992;23.912;2024-02-15T04:17:50;32.28;;;18.63;;
40152;SDS011;26371;56.992;23.912;2024-02-15T04:20:23;36.30;;;18.67;;
40152;SDS011;26371;56.992;23.912;2024-02-15T04:22:53;39.53;;;17.98;;
40152;SDS011;26371;56.992;23.912;2024-02-15T04:25:24;35.20;;;18.73;;
40152;SDS011;26371;56.992;23.912;2024-02-15T04:27:55;38.17;;;17.90;;
40152;SDS011;26371;56.992;23.912;2024-02-15T04:30:34;33.42;;;18.38;;
40152;SDS011;26371;56.992;23.912;2024-02-15T04:33:05;31.48;;;17.08;;
40152;SDS011;26371;56.992;23.912;2024-02-15T04:38:03;35.42;;;18.70;;
40152;SDS011;26371;56.992;23.912;2024-02-15T04:40:35;34.38;;;19.02;;
40152;SDS011;26371;56.992;23.912;2024-02-15T04:43:06;32.28;;;18.73;;
40152;SDS011;26371;56.992;23.912;2024-02-15T04:45:37;31.38;;;18.33;;
40152;SDS011;26371;56.992;23.912;2024-02-15T04:48:06;32.03;;;17.45;;
40152;SDS011;26371;56.992;23.912;2024-02-15T04:50:35;34.95;;;18.60;;
40152;SDS011;26371;56.992;23.912;2024-02-15T04:53:04;32.22;;;16.70;;
40152;SDS011;26371;56.992;23.912;2024-02-15T04:55:33;36.25;;;18.65;;
40152;SDS011;26371;56.992;23.912;2024-02-15T04:58:03;35.70;;;17.27;;
40152;SDS011;26371;56.992;23.912;2024-02-15T05:00:32;40.00;;;17.60;;
40152;SDS011;26371;56.992;23.912;2024-02-15T05:03:04;37.10;;;18.42;;
40152;SDS011;26371;56.992;23.912;2024-02-15T05:05:34;35.95;;;17.73;;
40152;SDS011;26371;56.992;23.912;2024-02-15T05:08:05;35.33;;;18.55;;
40152;SDS011;26371;56.992;23.912;2024-02-15T05:10:36;34.05;;;17.02;;
40152;SDS011;26371;56.992;23.912;2024-02-15T05:13:05;31.42;;;16.90;;
40152;SDS011;26371;56.992;23.912;2024-02-15T05:15:34;31.70;;;17.33;;
40152;SDS011;26371;56.992;23.912;2024-02-15T05:18:05;35.73;;;17.77;;
40152;SDS011;26371;56.992;23.912;2024-02-15T05:20:38;29.77;;;17.08;;
40152;SDS011;26371;56.992;23.912;2024-02-15T05:23:07;34.53;;;18.67;;
40152;SDS011;26371;56.992;23.912;2024-02-15T05:25:36;32.40;;;17.10;;
40152;SDS011;26371;56.992;23.912;2024-02-15T05:28:05;36.93;;;19.03;;
40152;SDS011;26371;56.992;23.912;2024-02-15T05:30:35;37.17;;;18.02;;
40152;SDS011;26371;56.992;23.912;2024-02-15T05:33:08;34.70;;;18.35;;
40152;SDS011;26371;56.992;23.912;2024-02-15T05:35:38;34.42;;;17.33;;
40152;SDS011;26371;56.992;23.912;2024-02-15T05:38:08;37.92;;;19.98;;
40152;SDS011;26371;56.992;23.912;2024-02-15T05:40:42;39.83;;;18.80;;
40152;SDS011;26371;56.992;23.912;2024-02-15T05:43:12;34.40;;;19.23;;
40152;SDS011;26371;56.992;23.912;2024-02-15T05:45:41;40.95;;;21.02;;
40152;SDS011;26371;56.992;23.912;2024-02-15T05:48:13;36.03;;;19.63;;
40152;SDS011;26371;56.992;23.912;2024-02-15T05:50:43;38.45;;;20.20;;
40152;SDS011;26371;56.992;23.912;2024-02-15T05:53:11;31.20;;;18.50;;
40152;SDS011;26371;56.992;23.912;2024-02-15T05:55:40;35.77;;;19.90;;
40152;SDS011;26371;56.992;23.912;2024-02-15T05:58:11;37.45;;;19.92;;
40152;SDS011;26371;56.992;23.912;2024-02-15T06:00:40;41.80;;;20.48;;
40152;SDS011;26371;56.992;23.912;2024-02-15T06:03:11;36.33;;;19.90;;
40152;SDS011;26371;56.992;23.912;2024-02-15T06:05:42;34.15;;;19.40;;
40152;SDS011;26371;56.992;23.912;2024-02-15T06:08:11;40.35;;;19.08;;
40152;SDS011;26371;56.992;23.912;2024-02-15T06:10:40;41.00;;;19.73;;
40152;SDS011;26371;56.992;23.912;2024-02-15T06:13:09;39.70;;;18.98;;
40152;SDS011;26371;56.992;23.912;2024-02-15T06:15:38;37.60;;;20.27;;
40152;SDS011;26371;56.992;23.912;2024-02-15T06:18:07;34.40;;;18.70;;
40152;SDS011;26371;56.992;23.912;2024-02-15T06:20:39;40.70;;;21.38;;
40152;SDS011;26371;56.992;23.912;2024-02-15T06:23:11;37.70;;;20.63;;
40152;SDS011;26371;56.992;23.912;2024-02-15T06:25:40;34.72;;;17.38;;
40152;SDS011;26371;56.992;23.912;2024-02-15T06:28:09;37.87;;;20.27;;
40152;SDS011;26371;56.992;23.912;2024-02-15T06:31:01;31.75;;;18.00;;
40152;SDS011;26371;56.992;23.912;2024-02-15T06:52:00;76.63;;;34.35;;
40152;SDS011;26371;56.992;23.912;2024-02-15T06:54:29;42.30;;;23.23;;
40152;SDS011;26371;56.992;23.912;2024-02-15T06:56:58;42.77;;;25.53;;
40152;SDS011;26371;56.992;23.912;2024-02-15T06:59:27;42.55;;;21.80;;
40152;SDS011;26371;56.992;23.912;2024-02-15T07:01:56;38.80;;;20.57;;
40152;SDS011;26371;56.992;23.912;2024-02-15T07:04:32;37.33;;;20.10;;
40152;SDS011;26371;56.992;23.912;2024-02-15T07:07:02;38.47;;;19.88;;
40152;SDS011;26371;56.992;23.912;2024-02-15T07:09:32;38.47;;;18.73;;
40152;SDS011;26371;56.992;23.912;2024-02-15T07:12:01;30.35;;;17.58;;
40152;SDS011;26371;56.992;23.912;2024-02-15T07:17:00;35.78;;;19.55;;
40152;SDS011;26371;56.992;23.912;2024-02-15T07:19:29;37.03;;;20.85;;
40152;SDS011;26371;56.992;23.912;2024-02-15T07:22:04;34.50;;;18.95;;
40152;SDS011;26371;56.992;23.912;2024-02-15T07:24:34;39.50;;;20.83;;
40152;SDS011;26371;56.992;23.912;2024-02-15T07:27:05;32.97;;;17.90;;
40152;SDS011;26371;56.992;23.912;2024-02-15T07:29:34;35.58;;;19.17;;
40152;SDS011;26371;56.992;23.912;2024-02-15T07:32:04;33.72;;;18.02;;
40152;SDS011;26371;56.992;23.912;2024-02-15T07:34:35;39.30;;;19.63;;
40152;SDS011;26371;56.992;23.912;2024-02-15T07:37:06;37.25;;;19.40;;
40152;SDS011;26371;56.992;23.912;2024-02-15T07:39:36;36.67;;;20.92;;
40152;SDS011;26371;56.992;23.912;2024-02-15T07:42:04;34.33;;;19.40;;
40152;SDS011;26371;56.992;23.912;2024-02-15T07:44:35;36.70;;;17.98;;
40152;SDS011;26371;56.992;23.912;2024-02-15T07:47:04;62.37;;;34.00;;
40152;SDS011;26371;56.992;23.912;2024-02-15T07:49:34;44.28;;;22.77;;
40152;SDS011;26371;56.992;23.912;2024-02-15T07:52:03;45.42;;;22.88;;
40152;SDS011;26371;56.992;23.912;2024-02-15T07:54:36;37.55;;;20.65;;
40152;SDS011;26371;56.992;23.912;2024-02-15T07:57:05;37.23;;;20.37;;
40152;SDS011;26371;56.992;23.912;2024-02-15T07:59:35;43.58;;;21.55;;
40152;SDS011;26371;56.992;23.912;2024-02-15T08:02:07;41.53;;;21.10;;
40152;SDS011;26371;56.992;23.912;2024-02-15T08:04:39;40.58;;;20.65;;
40152;SDS011;26371;56.992;23.912;2024-02-15T08:07:12;37.58;;;20.10;;
40152;SDS011;26371;56.992;23.912;2024-02-15T08:09:41;42.00;;;20.30;;
40152;SDS011;26371;56.992;23.912;2024-02-15T08:14:40;36.92;;;19.17;;
40152;SDS011;26371;56.992;23.912;2024-02-15T08:19:39;36.60;;;19.90;;
40152;SDS011;26371;56.992;23.912;2024-02-15T08:22:14;35.40;;;20.15;;
40152;SDS011;26371;56.992;23.912;2024-02-15T08:24:43;38.03;;;18.83;;
40152;SDS011;26371;56.992;23.912;2024-02-15T08:27:12;37.20;;;19.50;;
40152;SDS011;26371;56.992;23.912;2024-02-15T08:29:43;36.58;;;19.65;;
40152;SDS011;26371;56.992;23.912;2024-02-15T08:32:11;40.60;;;20.57;;
40152;SDS011;26371;56.992;23.912;2024-02-15T08:34:41;39.47;;;20.48;;
40152;SDS011;26371;56.992;23.912;2024-02-15T08:37:10;37.03;;;19.67;;
40152;SDS011;26371;56.992;23.912;2024-02-15T08:39:40;33.90;;;19.98;;
40152;SDS011;26371;56.992;23.912;2024-02-15T08:42:11;39.78;;;19.60;;
40152;SDS011;26371;56.992;23.912;2024-02-15T08:44:40;32.07;;;18.63;;
40152;SDS011;26371;56.992;23.912;2024-02-15T08:47:09;43.90;;;20.90;;
40152;SDS011;26371;56.992;23.912;2024-02-15T08:49:38;37.20;;;20.02;;
40152;SDS011;26371;56.992;23.912;2024-02-15T08:52:07;35.40;;;19.30;;
40152;SDS011;26371;56.992;23.912;2024-02-15T08:54:36;36.83;;;19.13;;
40152;SDS011;26371;56.992;23.912;2024-02-15T08:57:06;37.67;;;20.30;;
40152;SDS011;26371;56.992;23.912;2024-02-15T08:59:35;34.05;;;19.25;;
40152;SDS011;26371;56.992;23.912;2024-02-15T09:02:04;35.92;;;19.25;;
40152;SDS011;26371;56.992;23.912;2024-02-15T09:04:33;30.15;;;18.55;;
40152;SDS011;26371;56.992;23.912;2024-02-15T09:07:08;41.13;;;20.33;;
40152;SDS011;26371;56.992;23.912;2024-02-15T09:09:37;33.70;;;19.45;;
40152;SDS011;26371;56.992;23.912;2024-02-15T09:12:07;36.38;;;19.63;;
40152;SDS011;26371;56.992;23.912;2024-02-15T09:14:37;77.35;;;43.42;;
40152;SDS011;26371;56.992;23.912;2024-02-15T09:17:06;39.30;;;22.80;;
40152;SDS011;26371;56.992;23.912;2024-02-15T09:19:35;36.03;;;20.90;;
40152;SDS011;26371;56.992;23.912;2024-02-15T09:22:04;38.75;;;19.33;;
40152;SDS011;26371;56.992;23.912;2024-02-15T09:24:33;33.22;;;19.02;;
40152;SDS011;26371;56.992;23.912;2024-02-15T09:27:02;44.78;;;29.60;;
40152;SDS011;26371;56.992;23.912;2024-02-15T09:29:32;31.88;;;18.50;;
40152;SDS011;26371;56.992;23.912;2024-02-15T09:32:01;43.00;;;27.17;;
40152;SDS011;26371;56.992;23.912;2024-02-15T09:34:30;38.63;;;21.30;;
40152;SDS011;26371;56.992;23.912;2024-02-15T09:36:59;33.28;;;18.50;;
40152;SDS011;26371;56.992;23.912;2024-02-15T09:39:28;31.03;;;18.17;;
40152;SDS011;26371;56.992;23.912;2024-02-15T09:41:57;39.77;;;20.03;;
40152;SDS011;26371;56.992;23.912;2024-02-15T09:44:26;31.27;;;18.58;;
40152;SDS011;26371;56.992;23.912;2024-02-15T09:46:59;32.83;;;18.77;;
40152;SDS011;26371;56.992;23.912;2024-02-15T09:49:33;34.42;;;18.48;;
40152;SDS011;26371;56.992;23.912;2024-02-15T09:52:07;38.03;;;19.83;;
40152;SDS011;26371;56.992;23.912;2024-02-15T09:54:39;32.72;;;18.33;;
40152;SDS011;26371;56.992;23.912;2024-02-15T09:57:10;33.30;;;17.58;;
40152;SDS011;26371;56.992;23.912;2024-02-15T09:59:40;32.22;;;17.35;;
40152;SDS011;26371;56.992;23.912;2024-02-15T10:02:31;28.65;;;15.50;;
40152;SDS011;26371;56.992;23.912;2024-02-15T10:05:03;27.25;;;15.00;;
40152;SDS011;26371;56.992;23.912;2024-02-15T10:07:32;30.85;;;16.33;;
40152;SDS011;26371;56.992;23.912;2024-02-15T10:10:13;25.35;;;15.27;;
40152;SDS011;26371;56.992;23.912;2024-02-15T10:12:44;24.90;;;14.90;;
40152;SDS011;26371;56.992;23.912;2024-02-15T10:15:26;27.05;;;14.38;;
40152;SDS011;26371;56.992;23.912;2024-02-15T10:18:01;27.10;;;14.35;;
40152;SDS011;26371;56.992;23.912;2024-02-15T10:20:33;22.67;;;13.57;;
40152;SDS011;26371;56.992;23.912;2024-02-15T10:23:10;26.33;;;14.23;;
40152;SDS011;26371;56.992;23.912;2024-02-15T10:25:40;23.00;;;13.82;;
40152;SDS011;26371;56.992;23.912;2024-02-15T10:28:09;24.77;;;13.63;;
40152;SDS011;26371;56.992;23.912;2024-02-15T10:30:39;22.67;;;12.80;;
40152;SDS011;26371;56.992;23.912;2024-02-15T10:33:17;25.33;;;13.13;;
40152;SDS011;26371;56.992;23.912;2024-02-15T10:35:47;22.55;;;13.27;;
40152;SDS011;26371;56.992;23.912;2024-02-15T10:38:16;27.95;;;12.35;;
40152;SDS011;26371;56.992;23.912;2024-02-15T10:40:45;23.67;;;13.20;;
40152;SDS011;26371;56.992;23.912;2024-02-15T10:43:14;20.92;;;12.70;;
40152;SDS011;26371;56.992;23.912;2024-02-15T10:45:45;23.25;;;12.43;;
40152;SDS011;26371;56.992;23.912;2024-02-15T10:48:17;22.98;;;12.40;;
40152;SDS011;26371;56.992;23.912;2024-02-15T10:50:46;21.40;;;12.65;;
40152;SDS011;26371;56.992;23.912;2024-02-15T10:53:19;27.73;;;12.93;;
40152;SDS011;26371;56.992;23.912;2024-02-15T10:55:53;33.30;;;18.02;;
40152;SDS011;26371;56.992;23.912;2024-02-15T10:58:29;22.63;;;11.95;;
40152;SDS011;26371;56.992;23.912;2024-02-15T11:01:02;21.63;;;10.95;;
40152;SDS011;26371;56.992;23.912;2024-02-15T11:03:39;18.13;;;10.52;;
40152;SDS011;26371;56.992;23.912;2024-02-15T11:06:14;21.42;;;11.23;;
40152;SDS011;26371;56.992;23.912;2024-02-15T11:08:45;20.90;;;11.10;;
40152;SDS011;26371;56.992;23.912;2024-02-15T11:11:15;20.42;;;12.07;;
40152;SDS011;26371;56.992;23.912;2024-02-15T11:13:45;19.85;;;10.80;;
40152;SDS011;26371;56.992;23.912;2024-02-15T11:19:09;22.92;;;10.93;;
40152;SDS011;26371;56.992;23.912;2024-02-15T11:24:30;19.42;;;10.65;;
40152;SDS011;26371;56.992;23.912;2024-02-15T11:27:02;27.13;;;10.48;;
40152;SDS011;26371;56.992;23.912;2024-02-15T11:29:50;19.25;;;10.02;;
40152;SDS011;26371;56.992;23.912;2024-02-15T11:32:34;21.45;;;11.20;;
40152;SDS011;26371;56.992;23.912;2024-02-15T11:35:13;23.30;;;14.52;;
40152;SDS011;26371;56.992;23.912;2024-02-15T11:46:23;18.13;;;8.70;;
40152;SDS011;26371;56.992;23.912;2024-02-15T11:48:56;19.45;;;9.60;;
40152;SDS011;26371;56.992;23.912;2024-02-15T11:51:32;18.67;;;9.13;;
40152;SDS011;26371;56.992;23.912;2024-02-15T11:54:05;22.13;;;10.25;;
40152;SDS011;26371;56.992;23.912;2024-02-15T11:56:50;17.42;;;8.80;;
40152;SDS011;26371;56.992;23.912;2024-02-15T11:59:38;17.05;;;9.63;;
40152;SDS011;26371;56.992;23.912;2024-02-15T12:02:20;19.17;;;10.35;;
40152;SDS011;26371;56.992;23.912;2024-02-15T12:05:06;22.85;;;12.10;;
40152;SDS011;26371;56.992;23.912;2024-02-15T12:07:57;21.80;;;11.27;;
40152;SDS011;26371;56.992;23.912;2024-02-15T12:10:43;20.75;;;10.20;;
40152;SDS011;26371;56.992;23.912;2024-02-15T12:13:30;15.82;;;8.65;;
40152;SDS011;26371;56.992;23.912;2024-02-15T12:16:16;16.02;;;9.20;;
40152;SDS011;26371;56.992;23.912;2024-02-15T12:19:04;21.58;;;9.80;;
40152;SDS011;26371;56.992;23.912;2024-02-15T12:21:33;15.68;;;8.52;;
40152;SDS011;26371;56.992;23.912;2024-02-15T12:24:04;18.40;;;9.85;;
40152;SDS011;26371;56.992;23.912;2024-02-15T12:26:33;17.05;;;8.98;;
40152;SDS011;26371;56.992;23.912;2024-02-15T12:29:05;17.63;;;9.85;;
40152;SDS011;26371;56.992;23.912;2024-02-15T12:31:35;16.95;;;9.43;;
40152;SDS011;26371;56.992;23.912;2024-02-15T12:34:05;17.25;;;9.70;;
40152;SDS011;26371;56.992;23.912;2024-02-15T12:36:35;16.95;;;8.20;;
40152;SDS011;26371;56.992;23.912;2024-02-15T12:39:06;21.52;;;9.43;;
40152;SDS011;26371;56.992;23.912;2024-02-15T12:41:39;15.48;;;8.85;;
40152;SDS011;26371;56.992;23.912;2024-02-15T12:44:09;17.40;;;8.88;;
40152;SDS011;26371;56.992;23.912;2024-02-15T12:46:38;15.32;;;8.80;;
40152;SDS011;26371;56.992;23.912;2024-02-15T12:49:12;14.95;;;8.48;;
40152;SDS011;26371;56.992;23.912;2024-02-15T12:55:12;15.85;;;8.00;;
40152;SDS011;26371;56.992;23.912;2024-02-15T12:57:43;17.60;;;8.43;;
40152;SDS011;26371;56.992;23.912;2024-02-15T13:00:18;16.08;;;8.73;;
40152;SDS011;26371;56.992;23.912;2024-02-15T13:02:49;16.65;;;8.05;;
40152;SDS011;26371;56.992;23.912;2024-02-15T13:05:20;15.73;;;8.75;;
40152;SDS011;26371;56.992;23.912;2024-02-15T13:07:50;14.70;;;7.78;;
40152;SDS011;26371;56.992;23.912;2024-02-15T13:10:21;15.60;;;8.00;;
40152;SDS011;26371;56.992;23.912;2024-02-15T13:12:51;19.17;;;8.32;;
40152;SDS011;26371;56.992;23.912;2024-02-15T13:15:23;16.75;;;8.00;;
40152;SDS011;26371;56.992;23.912;2024-02-15T13:18:00;17.35;;;8.30;;
40152;SDS011;26371;56.992;23.912;2024-02-15T13:20:32;16.60;;;7.40;;
40152;SDS011;26371;56.992;23.912;2024-02-15T13:23:02;15.63;;;8.60;;
40152;SDS011;26371;56.992;23.912;2024-02-15T13:25:38;17.13;;;7.93;;
40152;SDS011;26371;56.992;23.912;2024-02-15T13:28:11;20.35;;;8.40;;
40152;SDS011;26371;56.992;23.912;2024-02-15T13:30:40;17.33;;;8.25;;
40152;SDS011;26371;56.992;23.912;2024-02-15T13:33:12;16.42;;;7.47;;
40152;SDS011;26371;56.992;23.912;2024-02-15T13:35:41;18.38;;;8.93;;
40152;SDS011;26371;56.992;23.912;2024-02-15T13:38:11;22.88;;;9.60;;
40152;SDS011;26371;56.992;23.912;2024-02-15T13:40:43;19.02;;;8.98;;
40152;SDS011;26371;56.992;23.912;2024-02-15T13:43:16;18.00;;;8.38;;
40152;SDS011;26371;56.992;23.912;2024-02-15T13:45:45;25.00;;;9.95;;
40152;SDS011;26371;56.992;23.912;2024-02-15T13:48:15;19.88;;;9.20;;
40152;SDS011;26371;56.992;23.912;2024-02-15T13:50:44;15.07;;;7.53;;
40152;SDS011;26371;56.992;23.912;2024-02-15T13:53:13;15.60;;;7.30;;
40152;SDS011;26371;56.992;23.912;2024-02-15T13:55:44;20.77;;;7.88;;
40152;SDS011;26371;56.992;23.912;2024-02-15T13:58:13;22.27;;;10.20;;
40152;SDS011;26371;56.992;23.912;2024-02-15T14:00:42;20.17;;;8.75;;
40152;SDS011;26371;56.992;23.912;2024-02-15T14:03:11;22.03;;;12.17;;
40152;SDS011;26371;56.992;23.912;2024-02-15T14:05:42;13.43;;;6.97;;
40152;SDS011;26371;56.992;23.912;2024-02-15T14:08:13;14.10;;;6.72;;
40152;SDS011;26371;56.992;23.912;2024-02-15T14:10:41;14.15;;;6.97;;
40152;SDS011;26371;56.992;23.912;2024-02-15T14:13:12;15.40;;;8.98;;
40152;SDS011;26371;56.992;23.912;2024-02-15T14:15:41;18.00;;;9.87;;
40152;SDS011;26371;56.992;23.912;2024-02-15T14:18:10;17.02;;;8.75;;
40152;SDS011;26371;56.992;23.912;2024-02-15T14:20:42;17.50;;;9.18;;
40152;SDS011;26371;56.992;23.912;2024-02-15T14:23:11;12.93;;;8.50;;
40152;SDS011;26371;56.992;23.912;2024-02-15T14:25:42;15.25;;;7.07;;
40152;SDS011;26371;56.992;23.912;2024-02-15T14:28:13;18.27;;;9.20;;
40152;SDS011;26371;56.992;23.912;2024-02-15T14:33:28;15.75;;;7.28;;
40152;SDS011;26371;56.992;23.912;2024-02-15T14:36:00;14.50;;;7.32;;
40152;SDS011;26371;56.992;23.912;2024-02-15T14:38:31;19.85;;;10.45;;
40152;SDS011;26371;56.992;23.912;2024-02-15T14:41:03;15.60;;;8.85;;
40152;SDS011;26371;56.992;23.912;2024-02-15T14:43:35;15.07;;;7.20;;
40152;SDS011;26371;56.992;23.912;2024-02-15T14:46:04;17.95;;;9.02;;
40152;SDS011;26371;56.992;23.912;2024-02-15T14:48:35;15.25;;;8.00;;
40152;SDS011;26371;56.992;23.912;2024-02-15T14:51:07;28.23;;;15.98;;
40152;SDS011;26371;56.992;23.912;2024-02-15T14:53:37;12.70;;;7.97;;
40152;SDS011;26371;56.992;23.912;2024-02-15T14:56:07;17.87;;;8.63;;
40152;SDS011;26371;56.992;23.912;2024-02-15T14:58:36;13.93;;;7.63;;
40152;SDS011;26371;56.992;23.912;2024-02-15T15:01:05;16.43;;;8.17;;
40152;SDS011;26371;56.992;23.912;2024-02-15T15:03:36;17.17;;;7.65;;
40152;SDS011;26371;56.992;23.912;2024-02-15T15:06:06;17.38;;;8.50;;
40152;SDS011;26371;56.992;23.912;2024-02-15T15:08:54;14.70;;;7.65;;
40152;SDS011;26371;56.992;23.912;2024-02-15T15:11:44;19.25;;;10.32;;
40152;SDS011;26371;56.992;23.912;2024-02-15T15:14:30;15.07;;;7.60;;
40152;SDS011;26371;56.992;23.912;2024-02-15T15:16:58;14.70;;;8.70;;
40152;SDS011;26371;56.992;23.912;2024-02-15T15:19:29;16.55;;;9.55;;
40152;SDS011;26371;56.992;23.912;2024-02-15T15:21:59;17.65;;;8.38;;
40152;SDS011;26371;56.992;23.912;2024-02-15T15:24:28;17.65;;;9.18;;
40152;SDS011;26371;56.992;23.912;2024-02-15T15:26:58;19.27;;;9.73;;